TJSJ/SJU METAR and TAF weather

Enter ICAO airport designator
Station Type Date Time Source
TJSJ METAR 2019/08/26 06:56 UTC NOAA

TJSJ 260656Z 13004KT 10SM FEW025 27/24 A3000 RMK AO2 SLP158 T02720239 $


Station Type Date Time Source
TJSJ Decoded METAR 2019/08/26 06:56 UTC NOAA

Station name not available
Aug 26, 2019 - 02:56 AM EDT / 2019.08.26 0656 UTC
Wind: from the SE (130 degrees) at 5 MPH (4 KT):0
Visibility: 10 mile(s):0
Sky conditions: mostly clear
Temperature: 81.0 F (27.2 C)
Dew Point: 75.0 F (23.9 C)
Relative Humidity: 82%
Pressure (altimeter): 30 in. Hg (1015 hPa)
ob: TJSJ 260656Z 13004KT 10SM FEW025 27/24 A3000 RMK AO2 SLP158 T02720239
cycle: 7

Station Type Date Time Source
TJSJ TAF 2019/08/26 06:42 UTC NOAA

TAF TJSJ 260535Z 2606/2706 10008KT P6SM SKC
FM261300 06015KT P6SM FEW030 FEW050
FM262200 10008KT P6SM SCT025

Example: see airport list